sensor_id;sensor_type;location;lat;lon;timestamp;P1;durP1;ratioP1;P2;durP2;ratioP2
35943;SDS011;74514;54.776;9.436;2024-01-30T00:00:34;128.05;;;36.20;;
35943;SDS011;74514;54.776;9.436;2024-01-30T00:03:01;136.70;;;33.70;;
35943;SDS011;74514;54.776;9.436;2024-01-30T00:05:29;125.75;;;34.33;;
35943;SDS011;74514;54.776;9.436;2024-01-30T00:07:57;131.55;;;35.15;;
35943;SDS011;74514;54.776;9.436;2024-01-30T00:10:24;114.07;;;33.90;;
35943;SDS011;74514;54.776;9.436;2024-01-30T00:12:52;122.72;;;33.53;;
35943;SDS011;74514;54.776;9.436;2024-01-30T00:15:20;115.93;;;32.65;;
35943;SDS011;74514;54.776;9.436;2024-01-30T00:17:47;112.47;;;33.42;;
35943;SDS011;74514;54.776;9.436;2024-01-30T00:20:15;111.53;;;31.27;;
35943;SDS011;74514;54.776;9.436;2024-01-30T00:22:43;112.47;;;33.92;;
35943;SDS011;74514;54.776;9.436;2024-01-30T00:25:11;111.10;;;32.58;;
35943;SDS011;74514;54.776;9.436;2024-01-30T00:27:38;93.85;;;31.70;;
35943;SDS011;74514;54.776;9.436;2024-01-30T00:30:06;126.90;;;34.08;;
35943;SDS011;74514;54.776;9.436;2024-01-30T00:32:34;94.93;;;31.85;;
35943;SDS011;74514;54.776;9.436;2024-01-30T00:35:02;119.63;;;32.20;;
35943;SDS011;74514;54.776;9.436;2024-01-30T00:37:30;105.18;;;31.95;;
35943;SDS011;74514;54.776;9.436;2024-01-30T00:39:58;106.10;;;31.48;;
35943;SDS011;74514;54.776;9.436;2024-01-30T00:42:29;87.65;;;30.27;;
35943;SDS011;74514;54.776;9.436;2024-01-30T00:44:57;109.25;;;32.47;;
35943;SDS011;74514;54.776;9.436;2024-01-30T00:47:25;101.50;;;30.90;;
35943;SDS011;74514;54.776;9.436;2024-01-30T00:49:52;106.47;;;31.50;;
35943;SDS011;74514;54.776;9.436;2024-01-30T00:52:20;90.20;;;30.40;;
35943;SDS011;74514;54.776;9.436;2024-01-30T00:54:48;86.95;;;28.33;;
35943;SDS011;74514;54.776;9.436;2024-01-30T00:57:15;83.65;;;27.98;;
35943;SDS011;74514;54.776;9.436;2024-01-30T00:59:43;91.47;;;30.95;;
35943;SDS011;74514;54.776;9.436;2024-01-30T01:02:10;96.53;;;30.42;;
35943;SDS011;74514;54.776;9.436;2024-01-30T01:04:38;95.30;;;31.15;;
35943;SDS011;74514;54.776;9.436;2024-01-30T01:07:06;95.20;;;31.10;;
35943;SDS011;74514;54.776;9.436;2024-01-30T01:09:33;112.40;;;32.70;;
35943;SDS011;74514;54.776;9.436;2024-01-30T01:12:01;96.50;;;30.15;;
35943;SDS011;74514;54.776;9.436;2024-01-30T01:14:29;81.35;;;29.73;;
35943;SDS011;74514;54.776;9.436;2024-01-30T01:16:57;83.72;;;28.17;;
35943;SDS011;74514;54.776;9.436;2024-01-30T01:19:24;92.05;;;31.10;;
35943;SDS011;74514;54.776;9.436;2024-01-30T01:21:52;80.68;;;28.33;;
35943;SDS011;74514;54.776;9.436;2024-01-30T01:24:20;82.63;;;30.00;;
35943;SDS011;74514;54.776;9.436;2024-01-30T01:26:48;79.63;;;27.65;;
35943;SDS011;74514;54.776;9.436;2024-01-30T01:29:18;79.07;;;28.17;;
35943;SDS011;74514;54.776;9.436;2024-01-30T01:31:45;82.38;;;29.17;;
35943;SDS011;74514;54.776;9.436;2024-01-30T01:34:13;81.82;;;30.20;;
35943;SDS011;74514;54.776;9.436;2024-01-30T01:36:41;81.65;;;29.52;;
35943;SDS011;74514;54.776;9.436;2024-01-30T01:39:09;68.93;;;29.35;;
35943;SDS011;74514;54.776;9.436;2024-01-30T01:41:37;60.05;;;26.67;;
35943;SDS011;74514;54.776;9.436;2024-01-30T01:44:05;70.88;;;26.70;;
35943;SDS011;74514;54.776;9.436;2024-01-30T01:46:33;70.97;;;26.33;;
35943;SDS011;74514;54.776;9.436;2024-01-30T01:49:05;76.13;;;27.90;;
35943;SDS011;74514;54.776;9.436;2024-01-30T01:51:33;64.10;;;26.55;;
35943;SDS011;74514;54.776;9.436;2024-01-30T01:54:04;68.63;;;27.35;;
35943;SDS011;74514;54.776;9.436;2024-01-30T01:56:35;63.40;;;24.52;;
35943;SDS011;74514;54.776;9.436;2024-01-30T01:59:06;66.63;;;26.33;;
35943;SDS011;74514;54.776;9.436;2024-01-30T02:01:36;67.47;;;26.45;;
35943;SDS011;74514;54.776;9.436;2024-01-30T02:04:04;75.40;;;27.52;;
35943;SDS011;74514;54.776;9.436;2024-01-30T02:06:33;63.90;;;27.15;;
35943;SDS011;74514;54.776;9.436;2024-01-30T02:09:01;63.42;;;25.65;;
35943;SDS011;74514;54.776;9.436;2024-01-30T02:11:29;66.43;;;26.45;;
35943;SDS011;74514;54.776;9.436;2024-01-30T02:13:56;64.28;;;26.02;;
35943;SDS011;74514;54.776;9.436;2024-01-30T02:16:24;61.22;;;25.30;;
35943;SDS011;74514;54.776;9.436;2024-01-30T02:18:52;58.22;;;25.13;;
35943;SDS011;74514;54.776;9.436;2024-01-30T02:21:23;65.32;;;26.85;;
35943;SDS011;74514;54.776;9.436;2024-01-30T02:23:51;63.42;;;24.90;;
35943;SDS011;74514;54.776;9.436;2024-01-30T02:26:20;64.95;;;25.90;;
35943;SDS011;74514;54.776;9.436;2024-01-30T02:28:47;63.88;;;25.23;;
35943;SDS011;74514;54.776;9.436;2024-01-30T02:31:15;58.33;;;25.20;;
35943;SDS011;74514;54.776;9.436;2024-01-30T02:33:42;57.95;;;26.80;;
35943;SDS011;74514;54.776;9.436;2024-01-30T02:36:10;68.93;;;27.40;;
35943;SDS011;74514;54.776;9.436;2024-01-30T02:38:40;66.82;;;26.38;;
35943;SDS011;74514;54.776;9.436;2024-01-30T02:41:07;65.53;;;26.10;;
35943;SDS011;74514;54.776;9.436;2024-01-30T02:43:37;60.38;;;26.67;;
35943;SDS011;74514;54.776;9.436;2024-01-30T02:46:08;59.00;;;24.30;;
35943;SDS011;74514;54.776;9.436;2024-01-30T02:48:35;61.45;;;24.88;;
35943;SDS011;74514;54.776;9.436;2024-01-30T02:51:03;54.92;;;23.63;;
35943;SDS011;74514;54.776;9.436;2024-01-30T02:53:30;60.00;;;24.67;;
35943;SDS011;74514;54.776;9.436;2024-01-30T02:55:58;59.20;;;26.90;;
35943;SDS011;74514;54.776;9.436;2024-01-30T02:58:26;51.03;;;23.67;;
35943;SDS011;74514;54.776;9.436;2024-01-30T03:00:53;61.83;;;23.48;;
35943;SDS011;74514;54.776;9.436;2024-01-30T03:03:21;56.25;;;23.95;;
35943;SDS011;74514;54.776;9.436;2024-01-30T03:05:48;61.58;;;24.95;;
35943;SDS011;74514;54.776;9.436;2024-01-30T03:08:16;60.97;;;23.90;;
35943;SDS011;74514;54.776;9.436;2024-01-30T03:10:44;53.38;;;25.02;;
35943;SDS011;74514;54.776;9.436;2024-01-30T03:13:11;59.95;;;27.20;;
35943;SDS011;74514;54.776;9.436;2024-01-30T03:15:39;55.72;;;24.88;;
35943;SDS011;74514;54.776;9.436;2024-01-30T03:18:07;58.65;;;24.73;;
35943;SDS011;74514;54.776;9.436;2024-01-30T03:20:34;55.80;;;24.42;;
35943;SDS011;74514;54.776;9.436;2024-01-30T03:23:02;55.15;;;24.38;;
35943;SDS011;74514;54.776;9.436;2024-01-30T03:25:30;58.75;;;26.58;;
35943;SDS011;74514;54.776;9.436;2024-01-30T03:27:57;53.95;;;24.83;;
35943;SDS011;74514;54.776;9.436;2024-01-30T03:30:25;59.45;;;25.52;;
35943;SDS011;74514;54.776;9.436;2024-01-30T03:32:53;56.90;;;23.50;;
35943;SDS011;74514;54.776;9.436;2024-01-30T03:35:20;55.75;;;25.15;;
35943;SDS011;74514;54.776;9.436;2024-01-30T03:37:48;56.95;;;24.52;;
35943;SDS011;74514;54.776;9.436;2024-01-30T03:40:16;52.85;;;24.42;;
35943;SDS011;74514;54.776;9.436;2024-01-30T03:42:43;54.40;;;24.08;;
35943;SDS011;74514;54.776;9.436;2024-01-30T03:45:11;60.95;;;26.48;;
35943;SDS011;74514;54.776;9.436;2024-01-30T03:47:39;51.92;;;24.42;;
35943;SDS011;74514;54.776;9.436;2024-01-30T03:50:06;59.22;;;24.40;;
35943;SDS011;74514;54.776;9.436;2024-01-30T03:52:34;59.08;;;23.70;;
35943;SDS011;74514;54.776;9.436;2024-01-30T03:55:02;54.80;;;24.83;;
35943;SDS011;74514;54.776;9.436;2024-01-30T03:57:30;58.45;;;25.33;;
35943;SDS011;74514;54.776;9.436;2024-01-30T03:59:57;62.38;;;25.58;;
35943;SDS011;74514;54.776;9.436;2024-01-30T04:02:38;55.33;;;25.58;;
35943;SDS011;74514;54.776;9.436;2024-01-30T04:05:06;57.38;;;24.45;;
35943;SDS011;74514;54.776;9.436;2024-01-30T04:07:33;57.63;;;24.58;;
35943;SDS011;74514;54.776;9.436;2024-01-30T04:10:01;56.85;;;25.30;;
35943;SDS011;74514;54.776;9.436;2024-01-30T04:12:31;57.20;;;25.50;;
35943;SDS011;74514;54.776;9.436;2024-01-30T04:14:59;65.05;;;27.35;;
35943;SDS011;74514;54.776;9.436;2024-01-30T04:17:27;66.32;;;27.48;;
35943;SDS011;74514;54.776;9.436;2024-01-30T04:19:56;56.92;;;25.42;;
35943;SDS011;74514;54.776;9.436;2024-01-30T04:22:24;61.95;;;25.75;;
35943;SDS011;74514;54.776;9.436;2024-01-30T04:24:51;58.60;;;24.67;;
35943;SDS011;74514;54.776;9.436;2024-01-30T04:27:19;60.58;;;26.08;;
35943;SDS011;74514;54.776;9.436;2024-01-30T04:29:46;55.53;;;25.58;;
35943;SDS011;74514;54.776;9.436;2024-01-30T04:32:14;56.03;;;25.88;;
35943;SDS011;74514;54.776;9.436;2024-01-30T04:34:42;60.58;;;28.13;;
35943;SDS011;74514;54.776;9.436;2024-01-30T04:37:10;58.47;;;25.90;;
35943;SDS011;74514;54.776;9.436;2024-01-30T04:39:38;65.95;;;27.67;;
35943;SDS011;74514;54.776;9.436;2024-01-30T04:42:05;61.17;;;25.90;;
35943;SDS011;74514;54.776;9.436;2024-01-30T04:44:35;61.22;;;26.98;;
35943;SDS011;74514;54.776;9.436;2024-01-30T04:47:03;54.25;;;23.27;;
35943;SDS011;74514;54.776;9.436;2024-01-30T04:49:33;63.92;;;25.98;;
35943;SDS011;74514;54.776;9.436;2024-01-30T04:52:01;60.70;;;28.15;;
35943;SDS011;74514;54.776;9.436;2024-01-30T04:54:28;56.80;;;23.95;;
35943;SDS011;74514;54.776;9.436;2024-01-30T04:56:56;50.63;;;24.10;;
35943;SDS011;74514;54.776;9.436;2024-01-30T04:59:24;52.38;;;25.20;;
35943;SDS011;74514;54.776;9.436;2024-01-30T05:01:51;54.75;;;27.65;;
35943;SDS011;74514;54.776;9.436;2024-01-30T05:04:19;53.40;;;24.13;;
35943;SDS011;74514;54.776;9.436;2024-01-30T05:06:47;51.92;;;23.83;;
35943;SDS011;74514;54.776;9.436;2024-01-30T05:09:15;50.38;;;24.23;;
35943;SDS011;74514;54.776;9.436;2024-01-30T05:11:42;51.88;;;24.73;;
35943;SDS011;74514;54.776;9.436;2024-01-30T05:14:10;56.78;;;26.08;;
35943;SDS011;74514;54.776;9.436;2024-01-30T05:16:39;54.22;;;23.10;;
35943;SDS011;74514;54.776;9.436;2024-01-30T05:19:06;52.65;;;25.23;;
35943;SDS011;74514;54.776;9.436;2024-01-30T05:21:34;43.67;;;19.98;;
35943;SDS011;74514;54.776;9.436;2024-01-30T05:24:02;55.75;;;24.08;;
35943;SDS011;74514;54.776;9.436;2024-01-30T05:26:29;49.78;;;23.33;;
35943;SDS011;74514;54.776;9.436;2024-01-30T05:28:57;48.00;;;23.73;;
35943;SDS011;74514;54.776;9.436;2024-01-30T05:31:25;50.40;;;23.70;;
35943;SDS011;74514;54.776;9.436;2024-01-30T05:33:54;47.65;;;23.48;;
35943;SDS011;74514;54.776;9.436;2024-01-30T05:36:22;45.53;;;23.48;;
35943;SDS011;74514;54.776;9.436;2024-01-30T05:38:50;51.97;;;24.58;;
35943;SDS011;74514;54.776;9.436;2024-01-30T05:41:18;47.67;;;22.85;;
35943;SDS011;74514;54.776;9.436;2024-01-30T05:43:48;51.13;;;22.70;;
35943;SDS011;74514;54.776;9.436;2024-01-30T05:46:15;48.13;;;24.00;;
35943;SDS011;74514;54.776;9.436;2024-01-30T05:48:43;48.92;;;23.85;;
35943;SDS011;74514;54.776;9.436;2024-01-30T05:51:11;51.90;;;25.88;;
35943;SDS011;74514;54.776;9.436;2024-01-30T05:53:38;47.97;;;22.20;;
35943;SDS011;74514;54.776;9.436;2024-01-30T05:56:06;41.15;;;22.05;;
35943;SDS011;74514;54.776;9.436;2024-01-30T05:58:34;45.15;;;23.27;;
35943;SDS011;74514;54.776;9.436;2024-01-30T06:01:01;50.33;;;23.75;;
35943;SDS011;74514;54.776;9.436;2024-01-30T06:03:29;46.22;;;23.15;;
35943;SDS011;74514;54.776;9.436;2024-01-30T06:05:57;55.88;;;26.05;;
35943;SDS011;74514;54.776;9.436;2024-01-30T06:08:25;48.47;;;23.63;;
35943;SDS011;74514;54.776;9.436;2024-01-30T06:10:52;60.58;;;26.00;;
35943;SDS011;74514;54.776;9.436;2024-01-30T06:13:20;51.13;;;23.13;;
35943;SDS011;74514;54.776;9.436;2024-01-30T06:15:47;44.75;;;22.40;;
35943;SDS011;74514;54.776;9.436;2024-01-30T06:18:15;52.65;;;23.50;;
35943;SDS011;74514;54.776;9.436;2024-01-30T06:20:43;49.08;;;22.65;;
35943;SDS011;74514;54.776;9.436;2024-01-30T06:23:10;48.38;;;24.60;;
35943;SDS011;74514;54.776;9.436;2024-01-30T06:25:40;47.63;;;23.63;;
35943;SDS011;74514;54.776;9.436;2024-01-30T06:28:08;49.45;;;23.35;;
35943;SDS011;74514;54.776;9.436;2024-01-30T06:30:35;43.60;;;21.67;;
35943;SDS011;74514;54.776;9.436;2024-01-30T06:33:03;48.00;;;22.73;;
35943;SDS011;74514;54.776;9.436;2024-01-30T06:35:31;49.38;;;22.75;;
35943;SDS011;74514;54.776;9.436;2024-01-30T06:37:58;49.22;;;24.55;;
35943;SDS011;74514;54.776;9.436;2024-01-30T06:40:26;50.67;;;23.00;;
35943;SDS011;74514;54.776;9.436;2024-01-30T06:42:54;47.75;;;22.92;;
35943;SDS011;74514;54.776;9.436;2024-01-30T06:45:23;48.85;;;23.00;;
35943;SDS011;74514;54.776;9.436;2024-01-30T06:47:50;45.67;;;22.75;;
35943;SDS011;74514;54.776;9.436;2024-01-30T06:50:18;50.67;;;23.67;;
35943;SDS011;74514;54.776;9.436;2024-01-30T06:52:45;45.15;;;23.35;;
35943;SDS011;74514;54.776;9.436;2024-01-30T06:55:13;45.60;;;21.30;;
35943;SDS011;74514;54.776;9.436;2024-01-30T06:57:41;42.38;;;21.38;;
35943;SDS011;74514;54.776;9.436;2024-01-30T07:00:08;43.33;;;20.98;;
35943;SDS011;74514;54.776;9.436;2024-01-30T07:02:37;37.92;;;20.45;;
35943;SDS011;74514;54.776;9.436;2024-01-30T07:05:04;39.25;;;20.60;;
35943;SDS011;74514;54.776;9.436;2024-01-30T07:07:32;39.95;;;19.85;;
35943;SDS011;74514;54.776;9.436;2024-01-30T07:10:00;48.00;;;21.30;;
35943;SDS011;74514;54.776;9.436;2024-01-30T07:12:30;39.60;;;20.90;;
35943;SDS011;74514;54.776;9.436;2024-01-30T07:14:58;37.33;;;19.75;;
35943;SDS011;74514;54.776;9.436;2024-01-30T07:17:26;36.25;;;19.02;;
35943;SDS011;74514;54.776;9.436;2024-01-30T07:19:54;39.83;;;20.30;;
35943;SDS011;74514;54.776;9.436;2024-01-30T07:22:22;41.38;;;20.67;;
35943;SDS011;74514;54.776;9.436;2024-01-30T07:24:50;37.72;;;19.65;;
35943;SDS011;74514;54.776;9.436;2024-01-30T07:27:19;35.35;;;18.45;;
35943;SDS011;74514;54.776;9.436;2024-01-30T07:29:47;40.97;;;19.48;;
35943;SDS011;74514;54.776;9.436;2024-01-30T07:32:14;44.20;;;21.35;;
35943;SDS011;74514;54.776;9.436;2024-01-30T07:34:42;42.33;;;19.60;;
35943;SDS011;74514;54.776;9.436;2024-01-30T07:37:29;42.45;;;21.25;;
35943;SDS011;74514;54.776;9.436;2024-01-30T07:39:57;41.53;;;20.45;;
35943;SDS011;74514;54.776;9.436;2024-01-30T07:42:25;33.75;;;19.48;;
35943;SDS011;74514;54.776;9.436;2024-01-30T07:44:52;38.28;;;18.55;;
35943;SDS011;74514;54.776;9.436;2024-01-30T07:47:20;33.67;;;18.58;;
35943;SDS011;74514;54.776;9.436;2024-01-30T07:49:48;38.80;;;19.85;;
35943;SDS011;74514;54.776;9.436;2024-01-30T07:52:16;38.13;;;19.42;;
35943;SDS011;74514;54.776;9.436;2024-01-30T07:54:44;38.15;;;19.15;;
35943;SDS011;74514;54.776;9.436;2024-01-30T08:03:56;36.13;;;17.58;;
35943;SDS011;74514;54.776;9.436;2024-01-30T08:06:24;30.15;;;17.08;;
35943;SDS011;74514;54.776;9.436;2024-01-30T08:08:52;36.80;;;18.55;;
35943;SDS011;74514;54.776;9.436;2024-01-30T08:11:20;31.42;;;17.02;;
35943;SDS011;74514;54.776;9.436;2024-01-30T08:13:53;36.67;;;17.95;;
35943;SDS011;74514;54.776;9.436;2024-01-30T08:16:21;32.85;;;17.60;;
35943;SDS011;74514;54.776;9.436;2024-01-30T08:18:48;22.92;;;13.50;;
35943;SDS011;74514;54.776;9.436;2024-01-30T08:21:16;29.17;;;16.08;;
35943;SDS011;74514;54.776;9.436;2024-01-30T08:23:44;32.33;;;17.90;;
35943;SDS011;74514;54.776;9.436;2024-01-30T08:26:11;30.38;;;17.60;;
35943;SDS011;74514;54.776;9.436;2024-01-30T08:28:39;25.80;;;15.55;;
35943;SDS011;74514;54.776;9.436;2024-01-30T08:31:06;34.60;;;17.90;;
35943;SDS011;74514;54.776;9.436;2024-01-30T08:33:34;31.73;;;16.90;;
35943;SDS011;74514;54.776;9.436;2024-01-30T08:36:02;29.35;;;16.45;;
35943;SDS011;74514;54.776;9.436;2024-01-30T08:38:29;19.83;;;11.75;;
35943;SDS011;74514;54.776;9.436;2024-01-30T08:40:57;28.58;;;15.35;;
35943;SDS011;74514;54.776;9.436;2024-01-30T08:43:25;25.58;;;14.18;;
35943;SDS011;74514;54.776;9.436;2024-01-30T08:45:53;27.52;;;16.55;;
35943;SDS011;74514;54.776;9.436;2024-01-30T08:48:20;23.08;;;13.80;;
35943;SDS011;74514;54.776;9.436;2024-01-30T08:50:50;20.27;;;11.60;;
35943;SDS011;74514;54.776;9.436;2024-01-30T08:53:17;18.45;;;11.15;;
35943;SDS011;74514;54.776;9.436;2024-01-30T08:55:45;28.35;;;16.52;;
35943;SDS011;74514;54.776;9.436;2024-01-30T08:58:13;27.55;;;13.50;;
35943;SDS011;74514;54.776;9.436;2024-01-30T09:00:41;32.90;;;16.67;;
35943;SDS011;74514;54.776;9.436;2024-01-30T09:03:11;27.27;;;15.45;;
35943;SDS011;74514;54.776;9.436;2024-01-30T09:05:39;27.92;;;16.00;;
35943;SDS011;74514;54.776;9.436;2024-01-30T09:08:07;26.00;;;14.85;;
35943;SDS011;74514;54.776;9.436;2024-01-30T09:10:35;29.95;;;15.77;;
35943;SDS011;74514;54.776;9.436;2024-01-30T09:13:02;32.38;;;15.30;;
35943;SDS011;74514;54.776;9.436;2024-01-30T09:15:30;28.58;;;16.10;;
35943;SDS011;74514;54.776;9.436;2024-01-30T09:17:58;24.65;;;13.57;;
35943;SDS011;74514;54.776;9.436;2024-01-30T09:20:25;27.92;;;16.05;;
35943;SDS011;74514;54.776;9.436;2024-01-30T09:22:53;25.73;;;13.23;;
35943;SDS011;74514;54.776;9.436;2024-01-30T09:25:21;29.55;;;15.20;;
35943;SDS011;74514;54.776;9.436;2024-01-30T09:27:48;26.48;;;14.32;;
35943;SDS011;74514;54.776;9.436;2024-01-30T09:30:16;30.83;;;16.50;;
35943;SDS011;74514;54.776;9.436;2024-01-30T09:32:44;21.80;;;12.00;;
35943;SDS011;74514;54.776;9.436;2024-01-30T09:35:12;24.67;;;13.52;;
35943;SDS011;74514;54.776;9.436;2024-01-30T09:37:39;26.73;;;14.38;;
35943;SDS011;74514;54.776;9.436;2024-01-30T09:40:07;27.50;;;14.82;;
35943;SDS011;74514;54.776;9.436;2024-01-30T09:42:36;22.10;;;12.90;;
35943;SDS011;74514;54.776;9.436;2024-01-30T09:45:04;26.40;;;13.30;;
35943;SDS011;74514;54.776;9.436;2024-01-30T09:47:35;20.98;;;11.73;;
35943;SDS011;74514;54.776;9.436;2024-01-30T09:50:09;24.23;;;14.20;;
35943;SDS011;74514;54.776;9.436;2024-01-30T09:52:37;24.65;;;13.88;;
35943;SDS011;74514;54.776;9.436;2024-01-30T09:55:06;23.70;;;12.60;;
35943;SDS011;74514;54.776;9.436;2024-01-30T09:57:34;19.13;;;10.32;;
35943;SDS011;74514;54.776;9.436;2024-01-30T10:00:03;23.23;;;11.70;;
35943;SDS011;74514;54.776;9.436;2024-01-30T10:05:05;21.65;;;12.32;;
35943;SDS011;74514;54.776;9.436;2024-01-30T10:07:33;24.73;;;12.95;;
35943;SDS011;74514;54.776;9.436;2024-01-30T10:10:01;16.15;;;10.07;;
35943;SDS011;74514;54.776;9.436;2024-01-30T10:12:29;24.60;;;12.40;;
35943;SDS011;74514;54.776;9.436;2024-01-30T10:14:57;18.95;;;11.15;;
35943;SDS011;74514;54.776;9.436;2024-01-30T10:17:25;21.67;;;13.18;;
35943;SDS011;74514;54.776;9.436;2024-01-30T10:20:00;16.17;;;10.43;;
35943;SDS011;74514;54.776;9.436;2024-01-30T10:22:28;26.05;;;15.07;;
35943;SDS011;74514;54.776;9.436;2024-01-30T10:24:56;14.63;;;9.20;;
35943;SDS011;74514;54.776;9.436;2024-01-30T10:27:27;18.02;;;9.93;;
35943;SDS011;74514;54.776;9.436;2024-01-30T10:29:57;24.65;;;12.98;;
35943;SDS011;74514;54.776;9.436;2024-01-30T10:32:25;24.58;;;10.63;;
35943;SDS011;74514;54.776;9.436;2024-01-30T10:34:54;20.92;;;13.00;;
35943;SDS011;74514;54.776;9.436;2024-01-30T10:37:22;20.30;;;12.38;;
35943;SDS011;74514;54.776;9.436;2024-01-30T10:39:53;17.10;;;10.77;;
35943;SDS011;74514;54.776;9.436;2024-01-30T10:42:24;13.48;;;9.10;;
35943;SDS011;74514;54.776;9.436;2024-01-30T10:44:56;25.45;;;12.82;;
35943;SDS011;74514;54.776;9.436;2024-01-30T10:47:44;13.40;;;7.22;;
35943;SDS011;74514;54.776;9.436;2024-01-30T10:50:18;14.25;;;8.93;;
35943;SDS011;74514;54.776;9.436;2024-01-30T10:52:46;25.05;;;13.07;;
35943;SDS011;74514;54.776;9.436;2024-01-30T10:57:42;25.67;;;11.73;;
35943;SDS011;74514;54.776;9.436;2024-01-30T11:00:10;28.30;;;13.13;;
35943;SDS011;74514;54.776;9.436;2024-01-30T11:02:40;26.10;;;14.68;;
35943;SDS011;74514;54.776;9.436;2024-01-30T11:05:09;20.17;;;11.35;;
35943;SDS011;74514;54.776;9.436;2024-01-30T11:07:38;21.95;;;12.35;;
35943;SDS011;74514;54.776;9.436;2024-01-30T11:10:06;22.50;;;12.82;;
35943;SDS011;74514;54.776;9.436;2024-01-30T11:12:40;23.65;;;12.63;;
35943;SDS011;74514;54.776;9.436;2024-01-30T11:15:09;20.70;;;11.52;;
35943;SDS011;74514;54.776;9.436;2024-01-30T11:20:15;27.88;;;14.13;;
35943;SDS011;74514;54.776;9.436;2024-01-30T11:22:46;30.00;;;13.80;;
35943;SDS011;74514;54.776;9.436;2024-01-30T11:25:15;26.02;;;12.25;;
35943;SDS011;74514;54.776;9.436;2024-01-30T11:27:44;26.45;;;13.65;;
35943;SDS011;74514;54.776;9.436;2024-01-30T11:30:25;22.75;;;11.70;;
35943;SDS011;74514;54.776;9.436;2024-01-30T11:33:10;20.98;;;12.43;;
35943;SDS011;74514;54.776;9.436;2024-01-30T11:35:40;15.60;;;9.00;;
35943;SDS011;74514;54.776;9.436;2024-01-30T11:38:09;22.60;;;12.80;;
35943;SDS011;74514;54.776;9.436;2024-01-30T11:40:38;24.10;;;13.98;;
35943;SDS011;74514;54.776;9.436;2024-01-30T11:43:06;22.15;;;13.70;;
35943;SDS011;74514;54.776;9.436;2024-01-30T11:45:35;16.15;;;9.02;;
35943;SDS011;74514;54.776;9.436;2024-01-30T11:48:04;19.65;;;10.93;;
35943;SDS011;74514;54.776;9.436;2024-01-30T11:50:33;23.50;;;13.15;;
35943;SDS011;74514;54.776;9.436;2024-01-30T11:53:02;16.13;;;10.80;;
35943;SDS011;74514;54.776;9.436;2024-01-30T11:55:30;24.83;;;13.07;;
35943;SDS011;74514;54.776;9.436;2024-01-30T11:58:01;18.90;;;10.43;;
35943;SDS011;74514;54.776;9.436;2024-01-30T12:00:30;26.25;;;11.25;;
35943;SDS011;74514;54.776;9.436;2024-01-30T12:05:28;22.33;;;13.13;;
35943;SDS011;74514;54.776;9.436;2024-01-30T12:07:57;16.73;;;9.52;;
35943;SDS011;74514;54.776;9.436;2024-01-30T12:10:28;15.88;;;9.70;;
35943;SDS011;74514;54.776;9.436;2024-01-30T12:12:57;27.67;;;14.38;;
35943;SDS011;74514;54.776;9.436;2024-01-30T12:15:25;23.52;;;11.95;;
35943;SDS011;74514;54.776;9.436;2024-01-30T12:18:03;19.40;;;10.88;;
35943;SDS011;74514;54.776;9.436;2024-01-30T12:20:31;19.40;;;11.63;;
35943;SDS011;74514;54.776;9.436;2024-01-30T12:22:59;15.77;;;7.93;;
35943;SDS011;74514;54.776;9.436;2024-01-30T12:25:26;18.38;;;9.27;;
35943;SDS011;74514;54.776;9.436;2024-01-30T12:27:54;17.13;;;10.43;;
35943;SDS011;74514;54.776;9.436;2024-01-30T12:30:22;19.52;;;11.52;;
35943;SDS011;74514;54.776;9.436;2024-01-30T12:32:50;19.02;;;11.15;;
35943;SDS011;74514;54.776;9.436;2024-01-30T12:35:19;20.08;;;12.70;;
35943;SDS011;74514;54.776;9.436;2024-01-30T12:37:48;19.60;;;10.50;;
35943;SDS011;74514;54.776;9.436;2024-01-30T12:40:17;18.90;;;8.60;;
35943;SDS011;74514;54.776;9.436;2024-01-30T12:42:46;17.60;;;8.57;;
35943;SDS011;74514;54.776;9.436;2024-01-30T12:45:17;19.35;;;9.52;;
35943;SDS011;74514;54.776;9.436;2024-01-30T12:47:50;23.83;;;12.13;;
35943;SDS011;74514;54.776;9.436;2024-01-30T12:50:18;22.33;;;12.68;;
35943;SDS011;74514;54.776;9.436;2024-01-30T12:52:46;21.92;;;12.07;;
35943;SDS011;74514;54.776;9.436;2024-01-30T12:55:16;16.30;;;10.48;;
35943;SDS011;74514;54.776;9.436;2024-01-30T12:57:45;13.75;;;7.60;;
35943;SDS011;74514;54.776;9.436;2024-01-30T13:00:13;20.70;;;11.10;;
35943;SDS011;74514;54.776;9.436;2024-01-30T13:02:44;20.92;;;10.20;;
35943;SDS011;74514;54.776;9.436;2024-01-30T13:05:12;19.67;;;11.93;;
35943;SDS011;74514;54.776;9.436;2024-01-30T13:07:40;22.00;;;11.45;;
35943;SDS011;74514;54.776;9.436;2024-01-30T13:10:08;22.50;;;10.63;;
35943;SDS011;74514;54.776;9.436;2024-01-30T13:12:36;21.85;;;12.95;;
35943;SDS011;74514;54.776;9.436;2024-01-30T13:15:06;21.50;;;11.55;;
35943;SDS011;74514;54.776;9.436;2024-01-30T13:17:34;13.63;;;8.57;;
35943;SDS011;74514;54.776;9.436;2024-01-30T13:20:01;24.00;;;12.65;;
35943;SDS011;74514;54.776;9.436;2024-01-30T13:22:38;29.33;;;14.38;;
35943;SDS011;74514;54.776;9.436;2024-01-30T13:25:07;28.40;;;13.57;;
35943;SDS011;74514;54.776;9.436;2024-01-30T13:27:37;27.02;;;13.57;;
35943;SDS011;74514;54.776;9.436;2024-01-30T13:30:06;19.67;;;10.00;;
35943;SDS011;74514;54.776;9.436;2024-01-30T13:32:35;20.70;;;11.88;;
35943;SDS011;74514;54.776;9.436;2024-01-30T13:37:31;20.67;;;10.80;;
35943;SDS011;74514;54.776;9.436;2024-01-30T13:39:59;21.98;;;10.73;;
35943;SDS011;74514;54.776;9.436;2024-01-30T13:42:30;22.27;;;12.23;;
35943;SDS011;74514;54.776;9.436;2024-01-30T13:44:58;18.85;;;9.35;;
35943;SDS011;74514;54.776;9.436;2024-01-30T13:47:26;19.20;;;9.55;;
35943;SDS011;74514;54.776;9.436;2024-01-30T13:49:54;29.45;;;13.23;;
35943;SDS011;74514;54.776;9.436;2024-01-30T13:52:21;21.35;;;10.77;;
35943;SDS011;74514;54.776;9.436;2024-01-30T13:54:57;19.90;;;9.38;;
35943;SDS011;74514;54.776;9.436;2024-01-30T13:57:25;16.35;;;8.55;;
35943;SDS011;74514;54.776;9.436;2024-01-30T13:59:53;17.13;;;10.93;;
35943;SDS011;74514;54.776;9.436;2024-01-30T14:02:20;18.17;;;9.82;;
35943;SDS011;74514;54.776;9.436;2024-01-30T14:04:48;29.55;;;12.52;;
35943;SDS011;74514;54.776;9.436;2024-01-30T14:07:16;15.55;;;8.80;;
35943;SDS011;74514;54.776;9.436;2024-01-30T14:09:45;22.30;;;10.10;;
35943;SDS011;74514;54.776;9.436;2024-01-30T14:12:14;22.83;;;11.27;;
35943;SDS011;74514;54.776;9.436;2024-01-30T14:14:42;23.63;;;9.82;;
35943;SDS011;74514;54.776;9.436;2024-01-30T14:17:10;19.40;;;10.27;;
35943;SDS011;74514;54.776;9.436;2024-01-30T14:19:37;20.33;;;9.85;;
35943;SDS011;74514;54.776;9.436;2024-01-30T14:22:05;14.15;;;8.48;;
35943;SDS011;74514;54.776;9.436;2024-01-30T14:24:34;13.77;;;6.25;;
35943;SDS011;74514;54.776;9.436;2024-01-30T14:27:01;18.40;;;8.48;;
35943;SDS011;74514;54.776;9.436;2024-01-30T14:29:29;14.65;;;7.88;;
35943;SDS011;74514;54.776;9.436;2024-01-30T14:31:57;19.30;;;9.05;;
35943;SDS011;74514;54.776;9.436;2024-01-30T14:34:24;19.42;;;9.10;;
35943;SDS011;74514;54.776;9.436;2024-01-30T14:36:52;16.42;;;8.85;;
35943;SDS011;74514;54.776;9.436;2024-01-30T14:39:20;17.58;;;8.68;;
35943;SDS011;74514;54.776;9.436;2024-01-30T14:41:48;21.38;;;11.10;;
35943;SDS011;74514;54.776;9.436;2024-01-30T14:44:15;18.38;;;10.77;;
35943;SDS011;74514;54.776;9.436;2024-01-30T14:46:43;20.20;;;10.07;;